ETHF/FRZ METAR and TAF weather

Enter ICAO airport designator
Station Type Date Time Source
ETHF METAR 2019/12/13 22:20 UTC NOAA

ETHF 132220Z 21006KT 9999 BKN019 03/02 Q0986 WHT


Station Type Date Time Source
ETHF Decoded METAR 2019/12/13 22:20 UTC NOAA

Fritzlar, Germany (ETHF) 51-07N 009-17E 181M
Dec 13, 2019 - 05:20 PM EST / 2019.12.13 2220 UTC
Wind: from the SSW (210 degrees) at 7 MPH (6 KT):0
Visibility: greater than 7 mile(s):0
Sky conditions: mostly cloudy
Temperature: 37 F (3 C)
Dew Point: 35 F (2 C)
Relative Humidity: 93%
Pressure (altimeter): 29.12 in. Hg (0986 hPa)
ob: ETHF 132220Z 21006KT 9999 BKN019 03/02 Q0986 WHT
cycle: 22

Station Type Date Time Source
ETHF TAF 2018/05/18 05:37 UTC NOAA

TAF ETHF 180407Z 1805/1818 35006KT 9999 NSW BKN020
TEMPO 1805/1808 33005KT 9999 NSW BKN012
BECMG 1809/1811 36008KT 9999 NSW SCT030 BKN180

Example: see airport list